createdAt,value
2022-10-07T00:00:51.240Z,13.61
2022-10-07T00:03:18.461Z,13.63
2022-10-07T00:05:45.360Z,14.00
2022-10-07T00:08:12.143Z,13.35
2022-10-07T00:10:43.103Z,13.88
2022-10-07T00:13:12.056Z,13.78
2022-10-07T00:15:39.244Z,13.74
2022-10-07T00:18:05.985Z,13.99
2022-10-07T00:20:39.535Z,13.97
2022-10-07T00:23:07.806Z,13.94
2022-10-07T00:25:37.808Z,13.59
2022-10-07T00:28:05.234Z,13.71
2022-10-07T00:30:32.059Z,13.95
2022-10-07T00:32:58.639Z,14.00
2022-10-07T00:35:25.200Z,14.02
2022-10-07T00:37:52.169Z,13.82
2022-10-07T00:40:18.885Z,13.57
2022-10-07T00:42:45.355Z,13.81
2022-10-07T00:45:16.206Z,13.60
2022-10-07T00:47:48.379Z,13.83
2022-10-07T00:50:19.468Z,14.00
2022-10-07T00:52:50.771Z,13.59
2022-10-07T00:55:20.475Z,13.83
2022-10-07T00:57:47.967Z,14.00
2022-10-07T01:00:14.621Z,13.91
2022-10-07T01:02:41.314Z,13.73
2022-10-07T01:05:09.765Z,13.67
2022-10-07T01:07:37.167Z,14.13
2022-10-07T01:10:05.326Z,13.97
2022-10-07T01:12:59.420Z,13.73
2022-10-07T01:15:38.619Z,14.11
2022-10-07T01:18:29.520Z,13.91
2022-10-07T01:20:58.996Z,13.87
2022-10-07T01:24:03.396Z,13.99
2022-10-07T01:26:48.967Z,13.51
2022-10-07T01:29:27.316Z,13.98
2022-10-07T01:32:06.789Z,14.24
2022-10-07T01:34:34.777Z,13.76
2022-10-07T01:37:02.939Z,13.61
2022-10-07T01:39:34.541Z,13.88
2022-10-07T01:42:01.740Z,13.74
2022-10-07T01:44:29.951Z,13.34
2022-10-07T01:46:57.061Z,13.42
2022-10-07T01:49:23.858Z,13.83
2022-10-07T01:52:12.154Z,13.89
2022-10-07T01:55:03.691Z,14.09
2022-10-07T01:57:59.323Z,13.92
2022-10-07T02:00:25.812Z,13.96
2022-10-07T02:02:58.661Z,14.22
2022-10-07T02:06:07.102Z,13.66
2022-10-07T02:08:45.667Z,14.09
2022-10-07T02:11:15.539Z,13.69
2022-10-07T02:14:00.992Z,14.16
2022-10-07T02:16:33.725Z,13.79
2022-10-07T02:19:03.698Z,13.98
2022-10-07T02:21:31.871Z,13.93
2022-10-07T02:23:58.877Z,13.94
2022-10-07T02:26:27.559Z,13.89
2022-10-07T02:28:54.435Z,13.78
2022-10-07T02:31:24.554Z,14.01
2022-10-07T02:33:53.955Z,14.06
2022-10-07T02:36:25.211Z,13.56
2022-10-07T02:38:52.500Z,13.22
2022-10-07T02:41:33.794Z,13.78
2022-10-07T02:44:16.730Z,13.71
2022-10-07T02:46:53.597Z,14.00
2022-10-07T02:49:21.846Z,13.68
2022-10-07T02:51:54.757Z,13.53
2022-10-07T02:54:24.975Z,13.48
2022-10-07T02:56:52.044Z,13.67
2022-10-07T02:59:19.179Z,14.07
2022-10-07T03:01:47.909Z,13.92
2022-10-07T03:04:14.598Z,14.00
2022-10-07T03:06:42.890Z,14.13
2022-10-07T03:09:09.720Z,13.80
2022-10-07T03:11:38.538Z,14.03
2022-10-07T03:14:05.753Z,13.92
2022-10-07T03:16:32.680Z,14.07
2022-10-07T03:18:59.450Z,14.01
2022-10-07T03:21:25.909Z,13.97
2022-10-07T03:23:53.290Z,13.82
2022-10-07T03:26:19.819Z,14.27
2022-10-07T03:28:46.797Z,14.35
2022-10-07T03:31:15.490Z,14.23
2022-10-07T03:33:42.543Z,14.15
2022-10-07T03:36:09.378Z,14.05
2022-10-07T03:38:36.006Z,14.11
2022-10-07T03:41:04.427Z,14.18
2022-10-07T03:43:31.377Z,13.39
2022-10-07T03:45:58.368Z,13.05
2022-10-07T03:48:24.902Z,13.32
2022-10-07T03:50:53.140Z,13.65
2022-10-07T03:53:20.167Z,13.44
2022-10-07T03:55:46.643Z,13.80
2022-10-07T03:58:13.351Z,13.72
2022-10-07T04:00:41.231Z,13.47
2022-10-07T04:03:08.694Z,13.71
2022-10-07T04:05:36.288Z,13.82
2022-10-07T04:08:04.789Z,13.69
2022-10-07T04:10:31.567Z,13.60
2022-10-07T04:12:58.056Z,13.64
2022-10-07T04:15:24.665Z,13.63
2022-10-07T04:17:58.361Z,13.37
2022-10-07T04:20:26.015Z,13.69
2022-10-07T04:22:52.505Z,13.84
2022-10-07T04:25:38.538Z,13.68
2022-10-07T04:28:16.725Z,13.81
2022-10-07T04:30:44.107Z,13.83
2022-10-07T04:33:11.510Z,13.91
2022-10-07T04:35:39.659Z,13.74
2022-10-07T04:38:09.460Z,13.25
2022-10-07T04:40:39.882Z,13.34
2022-10-07T04:43:26.860Z,12.66
2022-10-07T04:45:55.043Z,13.30
2022-10-07T04:48:23.601Z,12.46
2022-10-07T04:50:52.197Z,12.65
2022-10-07T04:53:19.947Z,12.80
2022-10-07T04:55:51.755Z,12.67
2022-10-07T04:58:19.301Z,12.92
2022-10-07T05:00:48.640Z,12.93
2022-10-07T05:03:16.970Z,12.85
2022-10-07T05:05:45.077Z,13.31
2022-10-07T05:08:12.993Z,12.80
2022-10-07T05:10:40.064Z,13.06
2022-10-07T05:13:09.418Z,12.61
2022-10-07T05:15:35.908Z,13.13
2022-10-07T05:18:02.760Z,13.18
2022-10-07T05:20:29.389Z,13.27
2022-10-07T05:22:56.269Z,12.76
2022-10-07T05:25:22.808Z,13.34
2022-10-07T05:27:54.154Z,12.99
2022-10-07T05:30:21.009Z,13.01
2022-10-07T05:32:47.755Z,13.57
2022-10-07T05:35:14.948Z,13.19
2022-10-07T05:37:41.509Z,12.71
2022-10-07T05:40:08.495Z,13.19
2022-10-07T05:42:34.975Z,13.32
2022-10-07T05:45:05.261Z,13.16
2022-10-07T05:47:33.908Z,12.97
2022-10-07T05:50:00.542Z,12.98
2022-10-07T05:52:27.369Z,13.04
2022-10-07T05:54:53.904Z,12.36
2022-10-07T05:57:20.700Z,12.50
2022-10-07T05:59:47.157Z,12.41
2022-10-07T06:02:15.112Z,12.72
2022-10-07T06:04:44.597Z,13.06
2022-10-07T06:07:11.235Z,13.03
2022-10-07T06:09:56.298Z,12.57
2022-10-07T06:12:41.322Z,13.05
2022-10-07T06:15:10.689Z,12.85
2022-10-07T06:17:42.418Z,13.29
2022-10-07T06:20:10.202Z,13.15
2022-10-07T06:22:36.787Z,13.63
2022-10-07T06:25:03.749Z,13.76
2022-10-07T06:27:30.296Z,13.52
2022-10-07T06:29:56.784Z,13.20
2022-10-07T06:32:23.420Z,13.33
2022-10-07T06:34:50.044Z,13.09
2022-10-07T06:37:16.544Z,13.44
2022-10-07T06:39:43.030Z,13.56
2022-10-07T06:42:09.571Z,13.63
2022-10-07T06:44:36.041Z,13.64
2022-10-07T06:47:02.511Z,13.58
2022-10-07T06:49:29.069Z,13.41
2022-10-07T06:51:56.002Z,14.01
2022-10-07T06:54:22.617Z,13.88
2022-10-07T06:56:49.087Z,13.74
2022-10-07T06:59:15.512Z,13.79
2022-10-07T07:01:42.094Z,13.92
2022-10-07T07:04:08.654Z,13.68
2022-10-07T07:06:38.426Z,13.93
2022-10-07T07:09:05.368Z,13.98
2022-10-07T07:11:38.151Z,14.62
2022-10-07T07:14:05.654Z,14.23
2022-10-07T07:16:32.688Z,13.66
2022-10-07T07:19:05.141Z,13.29
2022-10-07T07:21:33.514Z,14.00
2022-10-07T07:24:00.287Z,13.58
2022-10-07T07:26:28.486Z,13.83
2022-10-07T07:29:00.522Z,13.91
2022-10-07T07:31:29.033Z,13.85
2022-10-07T07:33:59.560Z,14.42
2022-10-07T07:36:26.702Z,14.23
2022-10-07T07:38:55.694Z,14.62
2022-10-07T07:41:26.274Z,14.24
2022-10-07T07:43:54.778Z,14.18
2022-10-07T07:46:23.725Z,14.44
2022-10-07T07:48:51.837Z,13.92
2022-10-07T07:51:18.969Z,14.87
2022-10-07T07:53:45.935Z,15.00
2022-10-07T07:56:12.640Z,14.90
2022-10-07T07:58:39.668Z,15.17
2022-10-07T08:01:09.614Z,14.81
2022-10-07T08:03:37.393Z,15.25
2022-10-07T08:06:07.552Z,15.34
2022-10-07T08:08:34.843Z,15.31
2022-10-07T08:11:15.831Z,16.20
2022-10-07T08:13:43.018Z,16.88
2022-10-07T08:16:13.109Z,17.27
2022-10-07T08:18:45.844Z,16.56
2022-10-07T08:21:12.663Z,16.66
2022-10-07T08:23:39.833Z,17.70
2022-10-07T08:26:08.452Z,16.75
2022-10-07T08:28:36.132Z,16.97
2022-10-07T08:31:11.839Z,17.77
2022-10-07T08:33:40.650Z,17.67
2022-10-07T08:36:10.683Z,18.52
2022-10-07T08:38:38.571Z,18.34
2022-10-07T08:41:32.670Z,18.73
2022-10-07T08:44:17.935Z,18.50
2022-10-07T08:47:09.893Z,19.29
2022-10-07T08:49:48.290Z,20.03
2022-10-07T08:52:27.501Z,20.75
2022-10-07T08:54:54.062Z,20.21
2022-10-07T08:57:33.669Z,20.48
2022-10-07T09:00:03.679Z,20.92
2022-10-07T09:03:07.449Z,21.38
2022-10-07T09:05:39.002Z,20.87
2022-10-07T09:08:12.947Z,19.99
2022-10-07T09:10:42.931Z,20.61
2022-10-07T09:13:17.803Z,21.18
2022-10-07T09:16:05.979Z,22.22
2022-10-07T09:18:54.011Z,19.82
2022-10-07T09:21:25.491Z,20.17
2022-10-07T09:23:57.165Z,21.01
2022-10-07T09:26:26.386Z,20.86
2022-10-07T09:28:53.269Z,20.50
2022-10-07T09:31:21.411Z,21.05
2022-10-07T09:33:50.473Z,22.16
2022-10-07T09:36:20.101Z,24.48
2022-10-07T09:38:49.413Z,26.32
2022-10-07T09:41:36.000Z,29.92
2022-10-07T09:44:06.411Z,29.63
2022-10-07T09:46:46.580Z,34.17
2022-10-07T09:49:28.455Z,37.34
2022-10-07T09:52:04.480Z,37.69
2022-10-07T09:54:33.011Z,36.98
2022-10-07T09:57:01.994Z,38.84
2022-10-07T09:59:33.715Z,32.53
2022-10-07T10:02:22.909Z,34.09
2022-10-07T10:04:52.465Z,31.75
2022-10-07T10:07:28.359Z,35.03
2022-10-07T10:09:57.653Z,36.70
2022-10-07T10:12:25.264Z,36.21
2022-10-07T10:14:52.842Z,36.50
2022-10-07T10:17:30.406Z,37.30
2022-10-07T10:20:43.356Z,36.77
2022-10-07T10:23:29.697Z,40.42
2022-10-07T10:26:32.444Z,39.86
2022-10-07T10:29:37.879Z,36.36
2022-10-07T10:32:25.814Z,38.77
2022-10-07T10:35:19.962Z,38.43
2022-10-07T10:38:28.068Z,37.35
2022-10-07T10:41:11.742Z,42.81
2022-10-07T10:43:58.446Z,43.45
2022-10-07T10:46:36.969Z,42.52
2022-10-07T10:49:12.754Z,37.88
2022-10-07T10:51:48.177Z,36.26
2022-10-07T10:54:46.958Z,39.36
2022-10-07T10:57:24.036Z,38.14
2022-10-07T10:59:55.263Z,40.74
2022-10-07T11:02:36.833Z,40.47
2022-10-07T11:05:14.222Z,37.67
2022-10-07T11:07:46.064Z,36.05
2022-10-07T11:10:35.125Z,39.16
2022-10-07T11:13:27.980Z,43.31
2022-10-07T11:16:06.407Z,40.24
2022-10-07T11:18:47.193Z,40.50
2022-10-07T11:21:19.182Z,41.05
2022-10-07T11:24:18.191Z,40.93
2022-10-07T11:26:47.766Z,43.33
2022-10-07T11:29:26.742Z,39.00
2022-10-07T11:32:05.551Z,40.97
2022-10-07T11:34:42.331Z,36.75
2022-10-07T11:37:20.252Z,34.44
2022-10-07T11:39:47.248Z,34.14
2022-10-07T11:42:17.464Z,34.36
2022-10-07T11:44:43.850Z,33.53
2022-10-07T11:47:13.877Z,33.04
2022-10-07T11:49:45.226Z,32.73
2022-10-07T11:52:26.646Z,33.76
2022-10-07T11:55:07.053Z,33.75
2022-10-07T11:57:39.067Z,34.81
2022-10-07T12:00:08.113Z,37.84
2022-10-07T12:02:46.463Z,35.87
2022-10-07T12:05:35.993Z,36.25
2022-10-07T12:08:34.767Z,34.90
2022-10-07T12:11:33.634Z,29.88
2022-10-07T12:14:28.775Z,28.70
2022-10-07T12:16:55.534Z,28.91
2022-10-07T12:19:24.053Z,25.37
2022-10-07T12:22:00.202Z,25.14
2022-10-07T12:24:28.087Z,24.72
2022-10-07T12:27:16.320Z,23.23
2022-10-07T12:29:50.045Z,21.75
2022-10-07T12:32:46.738Z,22.40
2022-10-07T12:35:40.728Z,22.95
2022-10-07T12:38:10.216Z,22.64
2022-10-07T12:40:38.011Z,22.26
2022-10-07T12:43:19.712Z,22.72
2022-10-07T12:45:46.588Z,22.27
2022-10-07T12:48:21.010Z,21.61
2022-10-07T12:50:50.721Z,21.85
2022-10-07T12:53:19.129Z,22.46
2022-10-07T12:55:51.706Z,22.21
2022-10-07T12:58:36.723Z,22.54
2022-10-07T13:01:26.559Z,22.59
2022-10-07T13:04:16.614Z,22.03
2022-10-07T13:06:58.887Z,22.35
2022-10-07T13:09:44.532Z,23.52
2022-10-07T13:12:29.058Z,23.15
2022-10-07T13:15:22.941Z,23.12
2022-10-07T13:17:49.593Z,23.33
2022-10-07T13:20:36.005Z,23.23
2022-10-07T13:23:07.265Z,22.39
2022-10-07T13:25:34.880Z,22.38
2022-10-07T13:28:01.413Z,22.93
2022-10-07T13:30:32.586Z,22.43
2022-10-07T13:33:22.097Z,22.53
2022-10-07T13:35:49.838Z,21.87
2022-10-07T13:38:24.677Z,22.38
2022-10-07T13:41:05.092Z,23.44
2022-10-07T13:43:32.971Z,22.53
2022-10-07T13:46:01.336Z,22.25
2022-10-07T13:48:31.177Z,22.46
2022-10-07T13:50:59.241Z,22.03
2022-10-07T13:53:31.806Z,22.81
2022-10-07T13:56:17.825Z,22.85
2022-10-07T13:58:44.498Z,23.10
2022-10-07T14:01:11.213Z,23.04
2022-10-07T14:04:20.685Z,22.90
2022-10-07T14:07:12.588Z,22.31
2022-10-07T14:09:50.500Z,22.67
2022-10-07T14:12:25.161Z,22.46
2022-10-07T14:14:55.976Z,22.80
2022-10-07T14:17:23.221Z,22.20
2022-10-07T14:19:52.890Z,22.13
2022-10-07T14:22:27.790Z,22.81
2022-10-07T14:24:58.115Z,22.50
2022-10-07T14:28:13.785Z,22.72
2022-10-07T14:30:59.945Z,22.36
2022-10-07T14:33:48.245Z,23.20
2022-10-07T14:36:19.903Z,22.62
2022-10-07T14:38:48.362Z,23.22
2022-10-07T14:41:16.322Z,23.42
2022-10-07T14:43:47.556Z,22.82
2022-10-07T14:46:22.800Z,22.62
2022-10-07T14:48:50.017Z,22.48
2022-10-07T14:51:19.068Z,21.93
2022-10-07T14:53:49.117Z,21.86
2022-10-07T14:56:22.798Z,22.40
2022-10-07T14:58:49.373Z,22.47
2022-10-07T15:01:16.570Z,23.00
2022-10-07T15:03:43.071Z,22.25
2022-10-07T15:06:09.704Z,22.55
2022-10-07T15:08:36.233Z,22.49
2022-10-07T15:11:05.501Z,22.33
2022-10-07T15:13:32.643Z,22.21
2022-10-07T15:15:59.162Z,22.61
2022-10-07T15:18:25.624Z,22.84
2022-10-07T15:20:56.821Z,22.64
2022-10-07T15:23:23.940Z,21.97
2022-10-07T15:25:51.880Z,21.95
2022-10-07T15:28:18.432Z,22.13
2022-10-07T15:30:45.162Z,22.45
2022-10-07T15:33:13.111Z,22.31
2022-10-07T15:35:39.582Z,21.66
2022-10-07T15:38:06.358Z,21.80
2022-10-07T15:40:32.931Z,22.00
2022-10-07T15:43:00.890Z,21.81
2022-10-07T15:45:27.311Z,22.20
2022-10-07T15:47:59.554Z,21.74
2022-10-07T15:50:27.570Z,21.48
2022-10-07T15:52:54.729Z,21.13
2022-10-07T15:55:21.207Z,21.46
2022-10-07T15:57:47.839Z,21.71
2022-10-07T16:00:15.216Z,21.31
2022-10-07T16:02:41.914Z,21.18
2022-10-07T16:05:12.443Z,21.00
2022-10-07T16:07:38.936Z,20.47
2022-10-07T16:10:10.726Z,20.54
2022-10-07T16:12:39.280Z,19.77
2022-10-07T16:15:06.594Z,20.02
2022-10-07T16:17:33.195Z,19.77
2022-10-07T16:20:00.001Z,20.13
2022-10-07T16:22:26.603Z,20.42
2022-10-07T16:24:55.449Z,19.62
2022-10-07T16:27:42.022Z,20.08
2022-10-07T16:30:27.641Z,19.64
2022-10-07T16:32:56.635Z,19.80
2022-10-07T16:35:23.281Z,19.84
2022-10-07T16:37:52.509Z,19.40
2022-10-07T16:40:19.328Z,19.77
2022-10-07T16:42:46.178Z,19.39
2022-10-07T16:45:12.657Z,19.55
2022-10-07T16:47:39.134Z,19.10
2022-10-07T16:50:10.800Z,19.38
2022-10-07T16:52:37.551Z,19.83
2022-10-07T16:55:04.737Z,19.56
2022-10-07T16:57:32.147Z,19.50
2022-10-07T17:00:00.775Z,19.59
2022-10-07T17:02:30.879Z,19.42
2022-10-07T17:04:57.586Z,19.32
2022-10-07T17:07:24.085Z,19.50
2022-10-07T17:09:50.566Z,19.42
2022-10-07T17:12:17.076Z,19.56
2022-10-07T17:14:43.609Z,19.46
2022-10-07T17:17:10.118Z,19.15
2022-10-07T17:19:36.878Z,19.19
2022-10-07T17:22:04.128Z,19.38
2022-10-07T17:24:31.028Z,19.33
2022-10-07T17:26:57.633Z,19.16
2022-10-07T17:29:25.961Z,18.79
2022-10-07T17:31:53.059Z,19.14
2022-10-07T17:34:20.745Z,18.78
2022-10-07T17:36:48.070Z,18.80
2022-10-07T17:39:14.714Z,18.88
2022-10-07T17:41:41.472Z,18.98
2022-10-07T17:44:11.668Z,18.33
2022-10-07T17:46:39.732Z,18.78
2022-10-07T17:49:07.727Z,18.81
2022-10-07T17:51:34.755Z,18.77
2022-10-07T17:54:03.367Z,18.93
2022-10-07T17:56:34.676Z,18.83
2022-10-07T17:59:01.556Z,18.68
2022-10-07T18:01:30.926Z,18.68
2022-10-07T18:04:03.282Z,18.19
2022-10-07T18:06:31.836Z,18.57
2022-10-07T18:09:04.525Z,18.00
2022-10-07T18:11:50.179Z,18.27
2022-10-07T18:14:37.589Z,18.18
2022-10-07T18:17:06.244Z,18.10
2022-10-07T18:19:32.925Z,18.24
2022-10-07T18:21:59.779Z,18.10
2022-10-07T18:24:28.752Z,18.07
2022-10-07T18:26:58.943Z,18.17
2022-10-07T18:29:26.770Z,18.26
2022-10-07T18:31:54.171Z,18.34
2022-10-07T18:34:22.971Z,18.01
2022-10-07T18:36:55.211Z,18.12
2022-10-07T18:39:23.220Z,17.95
2022-10-07T18:41:49.752Z,17.53
2022-10-07T18:44:16.236Z,17.21
2022-10-07T18:46:42.840Z,16.83
2022-10-07T18:49:10.967Z,16.98
2022-10-07T18:51:37.566Z,16.85
2022-10-07T18:54:04.228Z,16.92
2022-10-07T18:56:30.785Z,17.10
2022-10-07T18:59:01.414Z,17.08
2022-10-07T19:01:30.179Z,17.23
2022-10-07T19:03:57.575Z,17.33
2022-10-07T19:06:25.480Z,17.46
2022-10-07T19:09:00.233Z,17.33
2022-10-07T19:11:28.075Z,17.43
2022-10-07T19:13:58.053Z,17.50
2022-10-07T19:16:24.651Z,17.52
2022-10-07T19:18:53.248Z,17.30
2022-10-07T19:21:20.247Z,17.08
2022-10-07T19:23:48.278Z,17.19
2022-10-07T19:26:21.600Z,17.48
2022-10-07T19:28:49.828Z,17.32
2022-10-07T19:31:25.803Z,17.15
2022-10-07T19:33:56.675Z,17.38
2022-10-07T19:36:26.350Z,17.29
2022-10-07T19:38:53.445Z,17.38
2022-10-07T19:41:28.573Z,17.49
2022-10-07T19:43:55.793Z,17.45
2022-10-07T19:46:24.936Z,17.28
2022-10-07T19:48:52.481Z,17.26
2022-10-07T19:51:20.025Z,17.23
2022-10-07T19:53:47.457Z,16.98
2022-10-07T19:56:22.748Z,16.61
2022-10-07T19:58:54.679Z,16.71
2022-10-07T20:01:26.153Z,16.51
2022-10-07T20:04:06.949Z,16.43
2022-10-07T20:06:36.467Z,16.48
2022-10-07T20:09:05.507Z,16.25
2022-10-07T20:11:32.721Z,16.30
2022-10-07T20:13:59.922Z,15.85
2022-10-07T20:16:31.406Z,16.00
2022-10-07T20:19:01.024Z,16.22
2022-10-07T20:21:28.495Z,16.29
2022-10-07T20:23:55.689Z,16.42
2022-10-07T20:26:26.898Z,16.70
2022-10-07T20:28:55.307Z,16.82
2022-10-07T20:31:23.885Z,16.53
2022-10-07T20:33:52.410Z,16.57
2022-10-07T20:36:21.990Z,16.69
2022-10-07T20:39:12.543Z,16.81
2022-10-07T20:41:57.562Z,16.55
2022-10-07T20:44:24.156Z,16.72
2022-10-07T20:46:51.891Z,16.57
2022-10-07T20:49:22.350Z,16.63
2022-10-07T20:51:56.983Z,16.64
2022-10-07T20:54:26.074Z,16.61
2022-10-07T20:56:53.712Z,16.56
2022-10-07T20:59:21.791Z,16.47
2022-10-07T21:01:48.387Z,16.39
2022-10-07T21:04:15.841Z,16.41
2022-10-07T21:06:42.932Z,16.66
2022-10-07T21:09:10.423Z,16.19
2022-10-07T21:11:38.081Z,16.38
2022-10-07T21:14:04.824Z,16.53
2022-10-07T21:16:32.610Z,16.23
2022-10-07T21:18:59.473Z,16.09
2022-10-07T21:21:26.685Z,16.04
2022-10-07T21:23:53.238Z,16.05
2022-10-07T21:26:20.584Z,16.24
2022-10-07T21:28:48.398Z,15.94
2022-10-07T21:31:17.670Z,16.16
2022-10-07T21:33:46.596Z,16.11
2022-10-07T21:36:17.990Z,15.80
2022-10-07T21:38:45.526Z,15.86
2022-10-07T21:41:16.762Z,16.39
2022-10-07T21:43:44.078Z,16.11
2022-10-07T21:46:10.786Z,16.18
2022-10-07T21:48:37.271Z,16.46
2022-10-07T21:51:09.331Z,16.29
2022-10-07T21:53:36.513Z,16.16
2022-10-07T21:56:04.879Z,16.16
2022-10-07T21:58:32.876Z,16.08
2022-10-07T22:01:04.240Z,16.16
2022-10-07T22:03:31.016Z,16.18
2022-10-07T22:06:05.460Z,16.29
2022-10-07T22:08:36.305Z,16.33
2022-10-07T22:11:11.345Z,16.03
2022-10-07T22:13:46.193Z,16.01
2022-10-07T22:16:16.728Z,15.73
2022-10-07T22:18:45.608Z,16.00
2022-10-07T22:21:24.544Z,15.49
2022-10-07T22:23:53.292Z,15.85
2022-10-07T22:26:27.941Z,15.94
2022-10-07T22:28:54.549Z,15.79
2022-10-07T22:31:21.413Z,15.53
2022-10-07T22:33:54.343Z,15.79
2022-10-07T22:36:21.980Z,15.65
2022-10-07T22:38:49.150Z,15.94
2022-10-07T22:41:16.778Z,14.63
2022-10-07T22:43:45.140Z,15.56
2022-10-07T22:46:14.199Z,15.64
2022-10-07T22:48:43.168Z,15.40
2022-10-07T22:51:11.864Z,15.42
2022-10-07T22:53:40.922Z,14.83
2022-10-07T22:56:11.325Z,15.01
2022-10-07T22:58:39.695Z,15.23
2022-10-07T23:01:09.278Z,15.31
2022-10-07T23:03:38.443Z,15.00
2022-10-07T23:06:06.666Z,14.67
2022-10-07T23:08:37.091Z,15.09
2022-10-07T23:11:04.247Z,15.19
2022-10-07T23:13:36.084Z,15.19
2022-10-07T23:16:06.653Z,15.32
2022-10-07T23:18:33.644Z,15.19
2022-10-07T23:21:08.637Z,15.54
2022-10-07T23:23:36.740Z,15.12
2022-10-07T23:26:05.365Z,14.86
2022-10-07T23:28:34.456Z,15.58
2022-10-07T23:31:10.401Z,15.31
2022-10-07T23:33:37.406Z,15.19
2022-10-07T23:36:05.718Z,15.25
2022-10-07T23:38:33.470Z,14.70
2022-10-07T23:41:00.831Z,14.98
2022-10-07T23:43:27.866Z,14.80
2022-10-07T23:45:54.491Z,15.01
2022-10-07T23:48:20.936Z,14.97
2022-10-07T23:50:48.819Z,14.40
2022-10-07T23:53:16.415Z,14.75
2022-10-07T23:55:47.767Z,14.59
2022-10-07T23:58:15.520Z,14.43
